Smithers, Canada
Current Conditions -  °F | °C
As of 12:00 PM on Thursday 18 Dec 2014 (Local Time) from CYYD Reporting Station
Overcast Overcast  
Wind Chill: 23°   Ceiling: 3000
Heat Index: 28°   Visibility: 25mi
Dew Point: 25°   Wind: 5mph
Humidity: 86%   Direction: 100°E
Pressure: 29.69"   Gusts: NA
Location:  54.78°N, 127.17°W
Report Text: CYYD 182000Z 10004KT 060V120 25SM FEW015 BKN030 OVC100 M02/M04 A2969 RMK SC2SC4AC2 SLP076
Loading
Personal Weather Stations






























Interactive Weather Map New forecast layout! Learn more

10-Day Weather Forecast

Advertisements
Track Severe Weather on mobile